sensor_id;sensor_type;location;lat;lon;timestamp;temperature;humidity
22416;DHT22;12204;50.600;4.608;2024-03-02T00:03:34;21.60;73.70
22416;DHT22;12204;50.600;4.608;2024-03-02T00:08:37;21.50;73.20
22416;DHT22;12204;50.600;4.608;2024-03-02T00:13:43;21.50;73.40
22416;DHT22;12204;50.600;4.608;2024-03-02T00:18:46;21.50;73.30
22416;DHT22;12204;50.600;4.608;2024-03-02T00:23:50;21.50;73.40
22416;DHT22;12204;50.600;4.608;2024-03-02T00:28:56;21.50;73.50
22416;DHT22;12204;50.600;4.608;2024-03-02T00:34:01;21.50;73.70
22416;DHT22;12204;50.600;4.608;2024-03-02T00:39:07;21.40;73.60
22416;DHT22;12204;50.600;4.608;2024-03-02T00:44:19;21.40;74.00
22416;DHT22;12204;50.600;4.608;2024-03-02T00:49:24;21.50;74.60
22416;DHT22;12204;50.600;4.608;2024-03-02T00:54:29;21.50;74.70
22416;DHT22;12204;50.600;4.608;2024-03-02T00:59:34;21.60;74.50
22416;DHT22;12204;50.600;4.608;2024-03-02T01:04:38;21.60;74.10
22416;DHT22;12204;50.600;4.608;2024-03-02T01:09:41;21.70;73.80
22416;DHT22;12204;50.600;4.608;2024-03-02T01:14:46;21.70;73.60
22416;DHT22;12204;50.600;4.608;2024-03-02T01:19:50;21.80;73.50
22416;DHT22;12204;50.600;4.608;2024-03-02T01:24:54;21.80;73.40
22416;DHT22;12204;50.600;4.608;2024-03-02T01:29:59;21.80;73.30
22416;DHT22;12204;50.600;4.608;2024-03-02T01:35:02;21.90;73.20
22416;DHT22;12204;50.600;4.608;2024-03-02T01:40:07;21.90;73.20
22416;DHT22;12204;50.600;4.608;2024-03-02T01:45:14;21.80;73.10
22416;DHT22;12204;50.600;4.608;2024-03-02T01:50:25;21.80;73.00
22416;DHT22;12204;50.600;4.608;2024-03-02T01:55:30;21.80;72.90
22416;DHT22;12204;50.600;4.608;2024-03-02T02:00:36;21.80;72.90
22416;DHT22;12204;50.600;4.608;2024-03-02T02:05:42;21.80;73.10
22416;DHT22;12204;50.600;4.608;2024-03-02T02:10:45;21.80;72.90
22416;DHT22;12204;50.600;4.608;2024-03-02T02:15:50;21.90;73.00
22416;DHT22;12204;50.600;4.608;2024-03-02T02:20:55;21.90;73.00
22416;DHT22;12204;50.600;4.608;2024-03-02T02:26:00;21.80;73.10
22416;DHT22;12204;50.600;4.608;2024-03-02T02:31:05;21.80;73.10
22416;DHT22;12204;50.600;4.608;2024-03-02T02:36:09;21.80;73.00
22416;DHT22;12204;50.600;4.608;2024-03-02T02:41:14;21.70;73.60
22416;DHT22;12204;50.600;4.608;2024-03-02T02:46:17;21.70;73.00
22416;DHT22;12204;50.600;4.608;2024-03-02T02:51:21;21.70;73.10
22416;DHT22;12204;50.600;4.608;2024-03-02T02:56:27;21.70;72.80
22416;DHT22;12204;50.600;4.608;2024-03-02T03:01:30;21.70;72.90
22416;DHT22;12204;50.600;4.608;2024-03-02T03:06:34;21.70;72.80
22416;DHT22;12204;50.600;4.608;2024-03-02T03:11:39;21.70;72.80
22416;DHT22;12204;50.600;4.608;2024-03-02T03:16:42;21.70;73.10
22416;DHT22;12204;50.600;4.608;2024-03-02T03:21:46;21.70;73.00
22416;DHT22;12204;50.600;4.608;2024-03-02T03:26:51;21.70;73.10
22416;DHT22;12204;50.600;4.608;2024-03-02T03:31:54;21.70;73.10
22416;DHT22;12204;50.600;4.608;2024-03-02T03:36:57;21.60;73.00
22416;DHT22;12204;50.600;4.608;2024-03-02T03:42:02;21.70;73.20
22416;DHT22;12204;50.600;4.608;2024-03-02T03:47:06;21.60;73.20
22416;DHT22;12204;50.600;4.608;2024-03-02T03:52:10;21.60;73.20
22416;DHT22;12204;50.600;4.608;2024-03-02T03:57:14;21.60;73.30
22416;DHT22;12204;50.600;4.608;2024-03-02T04:02:18;21.60;73.30
22416;DHT22;12204;50.600;4.608;2024-03-02T04:07:21;21.60;73.30
22416;DHT22;12204;50.600;4.608;2024-03-02T04:12:26;21.60;73.30
22416;DHT22;12204;50.600;4.608;2024-03-02T04:17:32;21.60;73.20
22416;DHT22;12204;50.600;4.608;2024-03-02T04:22:37;21.70;73.10
22416;DHT22;12204;50.600;4.608;2024-03-02T04:27:42;21.70;73.00
22416;DHT22;12204;50.600;4.608;2024-03-02T04:32:46;21.70;72.80
22416;DHT22;12204;50.600;4.608;2024-03-02T04:37:50;21.70;72.80
22416;DHT22;12204;50.600;4.608;2024-03-02T04:42:55;21.80;72.80
22416;DHT22;12204;50.600;4.608;2024-03-02T04:48:00;21.80;72.80
22416;DHT22;12204;50.600;4.608;2024-03-02T04:53:04;21.80;72.70
22416;DHT22;12204;50.600;4.608;2024-03-02T04:58:09;21.80;72.70
22416;DHT22;12204;50.600;4.608;2024-03-02T05:03:12;21.80;73.30
22416;DHT22;12204;50.600;4.608;2024-03-02T05:08:16;21.80;72.60
22416;DHT22;12204;50.600;4.608;2024-03-02T05:13:21;21.70;72.60
22416;DHT22;12204;50.600;4.608;2024-03-02T05:18:24;21.80;72.80
22416;DHT22;12204;50.600;4.608;2024-03-02T05:23:28;21.70;72.70
22416;DHT22;12204;50.600;4.608;2024-03-02T05:28:32;21.70;72.40
22416;DHT22;12204;50.600;4.608;2024-03-02T05:33:37;21.70;72.60
22416;DHT22;12204;50.600;4.608;2024-03-02T05:38:41;21.70;72.60
22416;DHT22;12204;50.600;4.608;2024-03-02T05:43:46;21.70;72.50
22416;DHT22;12204;50.600;4.608;2024-03-02T05:48:49;21.70;72.70
22416;DHT22;12204;50.600;4.608;2024-03-02T05:53:53;21.70;72.70
22416;DHT22;12204;50.600;4.608;2024-03-02T05:58:57;21.60;72.70
22416;DHT22;12204;50.600;4.608;2024-03-02T06:04:13;21.60;72.70
22416;DHT22;12204;50.600;4.608;2024-03-02T06:09:17;21.60;72.80
22416;DHT22;12204;50.600;4.608;2024-03-02T06:14:23;21.60;72.90
22416;DHT22;12204;50.600;4.608;2024-03-02T06:19:26;21.50;72.80
22416;DHT22;12204;50.600;4.608;2024-03-02T06:24:30;21.50;73.00
22416;DHT22;12204;50.600;4.608;2024-03-02T06:29:35;21.50;73.10
22416;DHT22;12204;50.600;4.608;2024-03-02T06:34:39;21.50;73.40
22416;DHT22;12204;50.600;4.608;2024-03-02T06:39:43;21.50;73.20
22416;DHT22;12204;50.600;4.608;2024-03-02T06:44:48;21.50;73.30
22416;DHT22;12204;50.600;4.608;2024-03-02T06:49:52;21.40;73.20
22416;DHT22;12204;50.600;4.608;2024-03-02T06:54:55;21.40;73.20
22416;DHT22;12204;50.600;4.608;2024-03-02T07:00:00;21.40;73.20
22416;DHT22;12204;50.600;4.608;2024-03-02T07:05:07;21.40;73.30
22416;DHT22;12204;50.600;4.608;2024-03-02T07:10:11;21.40;73.40
22416;DHT22;12204;50.600;4.608;2024-03-02T07:15:16;21.40;73.40
22416;DHT22;12204;50.600;4.608;2024-03-02T07:20:46;21.40;73.60
22416;DHT22;12204;50.600;4.608;2024-03-02T07:25:51;21.30;73.40
22416;DHT22;12204;50.600;4.608;2024-03-02T07:31:01;21.30;72.20
22416;DHT22;12204;50.600;4.608;2024-03-02T07:36:07;21.30;70.30
22416;DHT22;12204;50.600;4.608;2024-03-02T07:41:11;21.30;69.80
22416;DHT22;12204;50.600;4.608;2024-03-02T07:46:16;21.20;68.80
22416;DHT22;12204;50.600;4.608;2024-03-02T07:51:19;21.20;68.10
22416;DHT22;12204;50.600;4.608;2024-03-02T07:56:23;21.10;68.70
22416;DHT22;12204;50.600;4.608;2024-03-02T08:01:28;21.10;69.10
22416;DHT22;12204;50.600;4.608;2024-03-02T08:06:32;21.00;68.80
22416;DHT22;12204;50.600;4.608;2024-03-02T08:11:36;21.10;68.80
22416;DHT22;12204;50.600;4.608;2024-03-02T08:16:42;21.10;69.20
22416;DHT22;12204;50.600;4.608;2024-03-02T08:21:45;21.00;69.40
22416;DHT22;12204;50.600;4.608;2024-03-02T08:26:49;21.00;69.70
22416;DHT22;12204;50.600;4.608;2024-03-02T08:31:54;21.10;70.00
22416;DHT22;12204;50.600;4.608;2024-03-02T08:36:57;21.00;70.20
22416;DHT22;12204;50.600;4.608;2024-03-02T08:42:01;21.00;70.20
22416;DHT22;12204;50.600;4.608;2024-03-02T08:47:07;21.00;70.60
22416;DHT22;12204;50.600;4.608;2024-03-02T08:52:11;21.00;70.80
22416;DHT22;12204;50.600;4.608;2024-03-02T08:57:14;21.00;70.90
22416;DHT22;12204;50.600;4.608;2024-03-02T09:02:19;21.00;71.00
22416;DHT22;12204;50.600;4.608;2024-03-02T09:07:23;21.00;71.10
22416;DHT22;12204;50.600;4.608;2024-03-02T09:12:26;21.00;71.90
22416;DHT22;12204;50.600;4.608;2024-03-02T09:17:31;20.90;71.20
22416;DHT22;12204;50.600;4.608;2024-03-02T09:22:35;20.90;71.30
22416;DHT22;12204;50.600;4.608;2024-03-02T09:27:38;20.90;71.30
22416;DHT22;12204;50.600;4.608;2024-03-02T09:32:43;20.90;71.40
22416;DHT22;12204;50.600;4.608;2024-03-02T09:37:50;20.90;71.50
22416;DHT22;12204;50.600;4.608;2024-03-02T09:42:54;20.90;71.50
22416;DHT22;12204;50.600;4.608;2024-03-02T09:48:00;20.90;71.50
22416;DHT22;12204;50.600;4.608;2024-03-02T09:53:04;20.90;71.70
22416;DHT22;12204;50.600;4.608;2024-03-02T09:58:08;20.90;71.80
22416;DHT22;12204;50.600;4.608;2024-03-02T10:03:13;20.90;71.80
22416;DHT22;12204;50.600;4.608;2024-03-02T10:08:17;20.80;71.80
22416;DHT22;12204;50.600;4.608;2024-03-02T10:13:25;20.90;71.90
22416;DHT22;12204;50.600;4.608;2024-03-02T10:18:29;20.90;71.90
22416;DHT22;12204;50.600;4.608;2024-03-02T10:23:33;20.80;72.00
22416;DHT22;12204;50.600;4.608;2024-03-02T10:28:46;20.80;72.00
22416;DHT22;12204;50.600;4.608;2024-03-02T10:33:51;20.80;72.00
22416;DHT22;12204;50.600;4.608;2024-03-02T10:38:56;20.80;72.00
22416;DHT22;12204;50.600;4.608;2024-03-02T10:44:02;20.80;72.10
22416;DHT22;12204;50.600;4.608;2024-03-02T10:49:08;20.80;72.10
22416;DHT22;12204;50.600;4.608;2024-03-02T10:54:12;20.80;72.20
22416;DHT22;12204;50.600;4.608;2024-03-02T10:59:21;20.80;72.10
22416;DHT22;12204;50.600;4.608;2024-03-02T11:04:31;20.80;72.20
22416;DHT22;12204;50.600;4.608;2024-03-02T11:09:37;20.80;72.20
22416;DHT22;12204;50.600;4.608;2024-03-02T11:14:44;20.80;72.20
22416;DHT22;12204;50.600;4.608;2024-03-02T11:19:49;20.80;72.30
22416;DHT22;12204;50.600;4.608;2024-03-02T11:24:53;20.80;72.50
22416;DHT22;12204;50.600;4.608;2024-03-02T11:29:57;20.80;72.40
22416;DHT22;12204;50.600;4.608;2024-03-02T11:35:02;20.70;72.50
22416;DHT22;12204;50.600;4.608;2024-03-02T11:40:10;20.80;72.50
22416;DHT22;12204;50.600;4.608;2024-03-02T11:45:16;20.80;72.50
22416;DHT22;12204;50.600;4.608;2024-03-02T11:50:30;20.70;72.60
22416;DHT22;12204;50.600;4.608;2024-03-02T11:55:38;20.80;72.60
22416;DHT22;12204;50.600;4.608;2024-03-02T12:00:42;20.70;72.60
22416;DHT22;12204;50.600;4.608;2024-03-02T12:05:48;20.70;72.90
22416;DHT22;12204;50.600;4.608;2024-03-02T12:10:57;20.70;72.00
22416;DHT22;12204;50.600;4.608;2024-03-02T12:16:03;20.90;71.60
22416;DHT22;12204;50.600;4.608;2024-03-02T12:21:09;21.20;71.30
22416;DHT22;12204;50.600;4.608;2024-03-02T12:26:13;21.10;72.00
22416;DHT22;12204;50.600;4.608;2024-03-02T12:31:16;21.00;70.40
22416;DHT22;12204;50.600;4.608;2024-03-02T12:36:22;21.00;69.30
22416;DHT22;12204;50.600;4.608;2024-03-02T12:41:25;20.90;69.30
22416;DHT22;12204;50.600;4.608;2024-03-02T12:46:30;20.90;69.60
22416;DHT22;12204;50.600;4.608;2024-03-02T12:51:35;20.90;69.80
22416;DHT22;12204;50.600;4.608;2024-03-02T12:56:40;20.90;70.10
22416;DHT22;12204;50.600;4.608;2024-03-02T13:01:51;20.90;70.10
22416;DHT22;12204;50.600;4.608;2024-03-02T13:06:56;20.90;70.20
22416;DHT22;12204;50.600;4.608;2024-03-02T13:12:00;20.90;70.40
22416;DHT22;12204;50.600;4.608;2024-03-02T13:17:08;20.90;70.30
22416;DHT22;12204;50.600;4.608;2024-03-02T13:22:13;20.80;70.60
22416;DHT22;12204;50.600;4.608;2024-03-02T13:27:17;20.80;70.70
22416;DHT22;12204;50.600;4.608;2024-03-02T13:32:21;20.80;70.90
22416;DHT22;12204;50.600;4.608;2024-03-02T13:37:27;20.70;71.00
22416;DHT22;12204;50.600;4.608;2024-03-02T13:42:31;20.70;71.00
22416;DHT22;12204;50.600;4.608;2024-03-02T13:47:34;20.70;71.20
22416;DHT22;12204;50.600;4.608;2024-03-02T13:52:39;20.70;71.50
22416;DHT22;12204;50.600;4.608;2024-03-02T13:57:42;20.60;71.60
22416;DHT22;12204;50.600;4.608;2024-03-02T14:02:46;20.60;72.20
22416;DHT22;12204;50.600;4.608;2024-03-02T14:07:52;20.60;72.20
22416;DHT22;12204;50.600;4.608;2024-03-02T14:12:56;20.60;72.40
22416;DHT22;12204;50.600;4.608;2024-03-02T14:18:00;20.60;73.60
22416;DHT22;12204;50.600;4.608;2024-03-02T14:23:04;20.60;73.00
22416;DHT22;12204;50.600;4.608;2024-03-02T14:28:08;20.60;73.90
22416;DHT22;12204;50.600;4.608;2024-03-02T14:33:31;20.60;74.20
22416;DHT22;12204;50.600;4.608;2024-03-02T14:38:37;20.60;74.70
22416;DHT22;12204;50.600;4.608;2024-03-02T14:43:41;20.60;74.70
22416;DHT22;12204;50.600;4.608;2024-03-02T14:48:45;20.60;74.60
22416;DHT22;12204;50.600;4.608;2024-03-02T14:53:51;20.60;75.40
22416;DHT22;12204;50.600;4.608;2024-03-02T14:58:54;20.60;74.60
22416;DHT22;12204;50.600;4.608;2024-03-02T15:03:57;20.60;74.80
22416;DHT22;12204;50.600;4.608;2024-03-02T15:09:03;20.60;74.70
22416;DHT22;12204;50.600;4.608;2024-03-02T15:14:06;20.60;74.50
22416;DHT22;12204;50.600;4.608;2024-03-02T15:19:09;20.60;74.50
22416;DHT22;12204;50.600;4.608;2024-03-02T15:24:14;20.50;74.30
22416;DHT22;12204;50.600;4.608;2024-03-02T15:29:18;20.50;74.20
22416;DHT22;12204;50.600;4.608;2024-03-02T15:34:24;20.50;74.20
22416;DHT22;12204;50.600;4.608;2024-03-02T15:39:29;20.50;74.20
22416;DHT22;12204;50.600;4.608;2024-03-02T15:44:32;20.50;74.20
22416;DHT22;12204;50.600;4.608;2024-03-02T15:49:36;20.50;74.10
22416;DHT22;12204;50.600;4.608;2024-03-02T15:54:40;20.50;74.20
22416;DHT22;12204;50.600;4.608;2024-03-02T15:59:45;20.50;74.20
22416;DHT22;12204;50.600;4.608;2024-03-02T16:04:49;20.40;74.10
22416;DHT22;12204;50.600;4.608;2024-03-02T16:09:54;20.40;74.10
22416;DHT22;12204;50.600;4.608;2024-03-02T16:14:58;20.50;74.70
22416;DHT22;12204;50.600;4.608;2024-03-02T16:20:02;20.50;74.50
22416;DHT22;12204;50.600;4.608;2024-03-02T16:25:09;20.50;74.50
22416;DHT22;12204;50.600;4.608;2024-03-02T16:30:13;20.50;75.10
22416;DHT22;12204;50.600;4.608;2024-03-02T16:35:17;20.50;75.40
22416;DHT22;12204;50.600;4.608;2024-03-02T16:40:22;20.50;76.00
22416;DHT22;12204;50.600;4.608;2024-03-02T16:45:25;20.50;76.00
22416;DHT22;12204;50.600;4.608;2024-03-02T16:50:31;20.60;75.70
22416;DHT22;12204;50.600;4.608;2024-03-02T16:55:36;20.60;75.70
22416;DHT22;12204;50.600;4.608;2024-03-02T17:00:40;20.60;75.70
22416;DHT22;12204;50.600;4.608;2024-03-02T17:05:43;20.60;75.80
22416;DHT22;12204;50.600;4.608;2024-03-02T17:10:48;20.60;75.70
22416;DHT22;12204;50.600;4.608;2024-03-02T17:15:52;20.60;75.60
22416;DHT22;12204;50.600;4.608;2024-03-02T17:20:56;20.60;75.80
22416;DHT22;12204;50.600;4.608;2024-03-02T17:26:00;20.50;75.90
22416;DHT22;12204;50.600;4.608;2024-03-02T17:31:04;20.50;75.80
22416;DHT22;12204;50.600;4.608;2024-03-02T17:36:08;20.50;75.80
22416;DHT22;12204;50.600;4.608;2024-03-02T17:41:13;20.50;76.20
22416;DHT22;12204;50.600;4.608;2024-03-02T17:46:17;20.50;76.10
22416;DHT22;12204;50.600;4.608;2024-03-02T17:51:21;20.50;76.00
22416;DHT22;12204;50.600;4.608;2024-03-02T17:56:26;20.50;75.90
22416;DHT22;12204;50.600;4.608;2024-03-02T18:01:30;20.50;75.80
22416;DHT22;12204;50.600;4.608;2024-03-02T18:06:33;20.40;75.70
22416;DHT22;12204;50.600;4.608;2024-03-02T18:11:38;20.50;75.60
22416;DHT22;12204;50.600;4.608;2024-03-02T18:16:42;20.60;76.70
22416;DHT22;12204;50.600;4.608;2024-03-02T18:21:45;20.90;76.20
22416;DHT22;12204;50.600;4.608;2024-03-02T18:26:52;21.10;75.60
22416;DHT22;12204;50.600;4.608;2024-03-02T18:31:55;21.20;75.10
22416;DHT22;12204;50.600;4.608;2024-03-02T18:37:01;21.40;74.80
22416;DHT22;12204;50.600;4.608;2024-03-02T18:42:06;21.50;74.40
22416;DHT22;12204;50.600;4.608;2024-03-02T18:47:10;21.50;74.20
22416;DHT22;12204;50.600;4.608;2024-03-02T18:52:14;21.60;74.00
22416;DHT22;12204;50.600;4.608;2024-03-02T18:57:19;21.60;73.90
22416;DHT22;12204;50.600;4.608;2024-03-02T19:02:23;21.60;73.80
22416;DHT22;12204;50.600;4.608;2024-03-02T19:07:27;21.70;73.80
22416;DHT22;12204;50.600;4.608;2024-03-02T19:12:32;21.60;73.80
22416;DHT22;12204;50.600;4.608;2024-03-02T19:17:35;21.70;73.80
22416;DHT22;12204;50.600;4.608;2024-03-02T19:22:39;21.70;73.70
22416;DHT22;12204;50.600;4.608;2024-03-02T19:27:44;21.60;73.60
22416;DHT22;12204;50.600;4.608;2024-03-02T19:32:47;21.60;73.60
22416;DHT22;12204;50.600;4.608;2024-03-02T19:37:51;21.60;73.70
22416;DHT22;12204;50.600;4.608;2024-03-02T19:42:58;21.60;73.80
22416;DHT22;12204;50.600;4.608;2024-03-02T19:48:02;21.60;73.90
22416;DHT22;12204;50.600;4.608;2024-03-02T19:53:06;21.60;73.90
22416;DHT22;12204;50.600;4.608;2024-03-02T19:58:11;21.50;73.90
22416;DHT22;12204;50.600;4.608;2024-03-02T20:03:15;21.50;73.80
22416;DHT22;12204;50.600;4.608;2024-03-02T20:08:18;21.50;73.80
22416;DHT22;12204;50.600;4.608;2024-03-02T20:13:23;21.50;74.70
22416;DHT22;12204;50.600;4.608;2024-03-02T20:18:27;21.50;76.50
22416;DHT22;12204;50.600;4.608;2024-03-02T20:23:30;21.60;75.90
22416;DHT22;12204;50.600;4.608;2024-03-02T20:28:35;21.60;75.90
22416;DHT22;12204;50.600;4.608;2024-03-02T20:33:38;21.50;75.80
22416;DHT22;12204;50.600;4.608;2024-03-02T20:38:42;21.50;75.80
22416;DHT22;12204;50.600;4.608;2024-03-02T20:43:47;21.40;75.60
22416;DHT22;12204;50.600;4.608;2024-03-02T20:48:51;21.40;75.70
22416;DHT22;12204;50.600;4.608;2024-03-02T20:53:54;21.40;75.80
22416;DHT22;12204;50.600;4.608;2024-03-02T20:59:00;21.40;76.00
22416;DHT22;12204;50.600;4.608;2024-03-02T21:04:04;21.30;76.00
22416;DHT22;12204;50.600;4.608;2024-03-02T21:09:07;21.30;76.30
22416;DHT22;12204;50.600;4.608;2024-03-02T21:14:13;21.30;76.30
22416;DHT22;12204;50.600;4.608;2024-03-02T21:19:16;21.30;76.40
22416;DHT22;12204;50.600;4.608;2024-03-02T21:24:21;21.20;76.30
22416;DHT22;12204;50.600;4.608;2024-03-02T21:29:26;21.20;76.40
22416;DHT22;12204;50.600;4.608;2024-03-02T21:34:30;21.20;76.50
22416;DHT22;12204;50.600;4.608;2024-03-02T21:39:33;21.20;76.60
22416;DHT22;12204;50.600;4.608;2024-03-02T21:44:48;21.20;76.40
22416;DHT22;12204;50.600;4.608;2024-03-02T21:49:53;21.40;76.90
22416;DHT22;12204;50.600;4.608;2024-03-02T21:54:57;21.60;76.60
22416;DHT22;12204;50.600;4.608;2024-03-02T22:00:02;21.70;76.30
22416;DHT22;12204;50.600;4.608;2024-03-02T22:05:13;21.90;76.30
22416;DHT22;12204;50.600;4.608;2024-03-02T22:10:16;21.90;76.00
22416;DHT22;12204;50.600;4.608;2024-03-02T22:15:21;22.10;76.30
22416;DHT22;12204;50.600;4.608;2024-03-02T22:20:25;22.20;75.90
22416;DHT22;12204;50.600;4.608;2024-03-02T22:25:28;22.30;75.50
22416;DHT22;12204;50.600;4.608;2024-03-02T22:30:33;22.30;75.30
22416;DHT22;12204;50.600;4.608;2024-03-02T22:35:36;22.40;75.20
22416;DHT22;12204;50.600;4.608;2024-03-02T22:40:40;22.40;75.00
22416;DHT22;12204;50.600;4.608;2024-03-02T22:45:45;22.40;74.20
22416;DHT22;12204;50.600;4.608;2024-03-02T22:50:49;22.40;74.10
22416;DHT22;12204;50.600;4.608;2024-03-02T22:55:54;22.40;74.10
22416;DHT22;12204;50.600;4.608;2024-03-02T23:00:58;22.40;73.90
22416;DHT22;12204;50.600;4.608;2024-03-02T23:06:06;22.40;74.10
22416;DHT22;12204;50.600;4.608;2024-03-02T23:11:10;22.40;73.90
22416;DHT22;12204;50.600;4.608;2024-03-02T23:16:15;22.30;74.40
22416;DHT22;12204;50.600;4.608;2024-03-02T23:21:19;22.30;74.70
22416;DHT22;12204;50.600;4.608;2024-03-02T23:26:22;22.30;74.90
22416;DHT22;12204;50.600;4.608;2024-03-02T23:31:28;22.20;75.00
22416;DHT22;12204;50.600;4.608;2024-03-02T23:36:31;22.20;75.10
22416;DHT22;12204;50.600;4.608;2024-03-02T23:41:35;22.20;75.30
22416;DHT22;12204;50.600;4.608;2024-03-02T23:46:40;22.10;75.60
22416;DHT22;12204;50.600;4.608;2024-03-02T23:51:43;22.10;75.80
22416;DHT22;12204;50.600;4.608;2024-03-02T23:56:47;22.10;76.10
